Time;durP1;ratioP1;P1;durP2;ratioP2;P2;SDS_P1;SDS_P2;PMS_P1;PMS_P2;Temp;Humidity;BMP_temperature;BMP_pressure;BME280_temperature;BME280_humidity;BME280_pressure;Samples;Min_cycle;Max_cycle;Signal;HPM_P1;HPM_P2
2021/12/18 00:00:00;;;;;;;0.60;0.60;;;;;;;2.29;86.30;98862.22;29395;220;63009;-63
2021/12/18 00:00:32;;;;;;;0.60;0.60;;;;;;;2.29;86.45;98867.56;29395;222;63005;-63
2021/12/18 00:01:05;;;;;;;0.60;0.60;;;;;;;2.28;86.34;98860.56;29395;227;63009;-63
2021/12/18 00:01:37;;;;;;;0.60;0.60;;;;;;;2.28;86.22;98861.38;29395;234;63004;-65
2021/12/18 00:02:12;;;;;;;0.60;0.60;;;;;;;2.28;86.32;98860.56;29395;216;63009;-64
2021/12/18 00:02:45;;;;;;;0.60;0.60;;;;;;;2.27;86.16;98864.25;29394;202;64009;-66
2021/12/18 00:03:17;;;;;;;0.60;0.60;;;;;;;2.27;86.50;98858.91;29394;234;64013;-63
2021/12/18 00:03:49;;;;;;;0.60;0.60;;;;;;;2.31;86.51;98876.25;29395;204;63004;-61
2021/12/18 00:04:22;;;;;;;0.60;0.60;;;;;;;2.30;86.42;98862.03;29395;246;63008;-63
2021/12/18 00:04:53;;;;;;;0.60;0.60;;;;;;;2.32;86.37;98869.88;29395;214;63005;-63
2021/12/18 00:05:26;;;;;;;0.60;0.60;;;;;;;2.32;86.17;98868.03;29395;231;63009;-64
2021/12/18 00:06:00;;;;;;;0.60;0.60;;;;;;;2.32;86.36;98870.69;29395;255;63005;-64
2021/12/18 00:06:32;;;;;;;0.60;0.60;;;;;;;2.32;86.07;98868.03;29395;274;63009;-63
2021/12/18 00:07:06;;;;;;;0.60;0.60;;;;;;;2.33;86.32;98868.84;29395;215;63005;-63
2021/12/18 00:07:40;;;;;;;0.60;0.60;;;;;;;2.33;86.41;98866.19;29394;223;64013;-64
2021/12/18 00:08:13;;;;;;;0.60;0.60;;;;;;;2.34;86.14;98868.66;29394;216;64009;-63
2021/12/18 00:08:46;;;;;;;0.60;0.60;;;;;;;2.33;86.04;98866.19;29394;243;64013;-64
2021/12/18 00:09:18;;;;;;;0.60;0.60;;;;;;;2.31;85.89;98870.91;29395;220;63004;-64
2021/12/18 00:09:52;;;;;;;0.60;0.60;;;;;;;2.26;85.89;98874.16;29395;260;63013;-64
2021/12/18 00:10:26;;;;;;;5.32;1.55;;;;;;;2.21;85.95;98865.84;29395;245;63004;-63
2021/12/18 00:10:59;;;;;;;0.60;0.60;;;;;;;2.25;85.91;98868.97;29394;218;64013;-63
2021/12/18 00:11:34;;;;;;;0.70;0.70;;;;;;;2.27;85.92;98869.62;29395;223;63004;-63
2021/12/18 00:12:11;;;;;;;0.60;0.60;;;;;;;2.26;85.73;98867.97;29395;205;63009;-64
2021/12/18 00:12:48;;;;;;;0.60;0.60;;;;;;;2.26;85.97;98870.63;29395;224;63005;-63
2021/12/18 00:13:20;;;;;;;0.60;0.60;;;;;;;2.25;86.01;98871.66;29395;274;63009;-64
2021/12/18 00:13:52;;;;;;;0.60;0.60;;;;;;;2.24;85.82;98870.00;29394;240;64009;-63
2021/12/18 00:14:24;;;;;;;0.60;0.60;;;;;;;2.22;86.01;98862.16;29395;231;63009;-63
2021/12/18 00:14:56;;;;;;;0.60;0.60;;;;;;;2.22;86.24;98867.50;29394;271;64009;-62
2021/12/18 00:15:30;;;;;;;0.65;0.65;;;;;;;2.23;86.26;98866.50;29395;205;63009;-63
2021/12/18 00:16:02;;;;;;;0.65;0.65;;;;;;;2.22;85.94;98862.16;29395;214;63004;-62
2021/12/18 00:16:34;;;;;;;0.60;0.60;;;;;;;2.22;86.28;98869.34;29394;199;64013;-64
2021/12/18 00:17:06;;;;;;;0.60;0.60;;;;;;;2.23;86.13;98865.66;29395;198;63004;-64
2021/12/18 00:17:38;;;;;;;0.60;0.60;;;;;;;2.20;86.39;98863.34;29395;281;63009;-62
2021/12/18 00:18:12;;;;;;;0.60;0.60;;;;;;;2.19;86.05;98861.69;29395;205;63004;-63
2021/12/18 00:18:45;;;;;;;0.60;0.60;;;;;;;2.20;86.25;98861.50;29395;202;63008;-63
2021/12/18 00:19:25;;;;;;;0.60;0.60;;;;;;;2.21;86.18;98865.03;29395;243;63005;-63
2021/12/18 00:19:58;;;;;;;0.60;0.60;;;;;;;2.21;86.27;98870.38;29394;225;64014;-63
2021/12/18 00:20:30;;;;;;;1.20;1.20;;;;;;;2.18;86.12;98868.91;29395;219;63005;-63
2021/12/18 00:21:04;;;;;;;0.60;0.60;;;;;;;2.15;86.17;98871.97;29395;211;63009;-63
2021/12/18 00:21:36;;;;;;;0.60;0.60;;;;;;;2.15;86.34;98871.97;29395;342;63005;-64
2021/12/18 00:22:08;;;;;;;0.60;0.60;;;;;;;2.18;86.46;98870.75;29395;228;63009;-64
2021/12/18 00:22:47;;;;;;;0.60;0.60;;;;;;;2.20;86.32;98874.06;29394;214;64009;-63
2021/12/18 00:23:20;;;;;;;0.60;0.60;;;;;;;2.21;86.27;98873.87;29395;244;63009;-63
2021/12/18 00:23:52;;;;;;;0.60;0.60;;;;;;;2.21;86.00;98871.19;29395;207;63004;-63
2021/12/18 00:24:24;;;;;;;0.60;0.60;;;;;;;2.22;86.13;98869.34;29395;225;63009;-63
2021/12/18 00:24:56;;;;;;;0.60;0.60;;;;;;;2.21;86.26;98871.19;29395;250;63004;-64
2021/12/18 00:25:28;;;;;;;0.60;0.60;;;;;;;2.20;85.94;98868.72;29395;205;63009;-64
2021/12/18 00:25:59;;;;;;;0.60;0.60;;;;;;;2.19;86.07;98875.09;29395;232;63004;-63
2021/12/18 00:26:31;;;;;;;0.60;0.60;;;;;;;2.18;86.03;98871.59;29395;279;63009;-63
2021/12/18 00:27:04;;;;;;;0.60;0.60;;;;;;;2.19;86.11;98869.75;29395;203;63005;-63
2021/12/18 00:27:36;;;;;;;0.60;0.60;;;;;;;2.17;86.39;98863.75;29395;202;63009;-64
2021/12/18 00:28:10;;;;;;;2.08;1.98;;;;;;;2.16;86.25;98867.44;29394;233;64009;-63
2021/12/18 00:28:42;;;;;;;0.60;0.60;;;;;;;2.18;86.50;98866.22;29394;213;64013;-64
2021/12/18 00:29:13;;;;;;;0.60;0.60;;;;;;;2.19;86.61;98867.06;29395;222;63005;-64
2021/12/18 00:29:45;;;;;;;0.70;0.70;;;;;;;2.20;86.61;98863.34;29394;219;64013;-63
2021/12/18 00:30:22;;;;;;;0.60;0.60;;;;;;;2.22;86.36;98870.19;29395;216;63005;-63
2021/12/18 00:30:56;;;;;;;0.60;0.60;;;;;;;2.22;86.55;98861.31;29395;273;63016;-63
2021/12/18 00:31:27;;;;;;;0.60;0.60;;;;;;;2.24;86.24;98870.00;29395;253;63004;-63
2021/12/18 00:31:59;;;;;;;0.60;0.60;;;;;;;2.25;86.38;98868.97;29395;254;63009;-63
2021/12/18 00:32:32;;;;;;;0.60;0.60;;;;;;;2.26;86.15;98873.31;29395;238;63004;-63
2021/12/18 00:33:06;;;;;;;0.60;0.60;;;;;;;2.27;86.50;98869.62;29394;220;64013;-63
2021/12/18 00:33:37;;;;;;;0.60;0.60;;;;;;;2.28;86.28;98866.75;29395;196;63004;-61
2021/12/18 00:34:09;;;;;;;0.60;0.60;;;;;;;2.30;86.03;98874.59;29395;253;63009;-57
2021/12/18 00:34:41;;;;;;;0.60;0.60;;;;;;;2.31;86.02;98881.59;29395;252;63005;-63
2021/12/18 00:35:14;;;;;;;0.60;0.60;;;;;;;2.33;85.67;98874.22;29395;211;63009;-63
2021/12/18 00:35:46;;;;;;;0.60;0.60;;;;;;;2.34;85.60;98871.34;29395;273;63005;-62
2021/12/18 00:36:18;;;;;;;0.60;0.60;;;;;;;2.35;85.80;98872.16;29394;247;64013;-63
2021/12/18 00:36:51;;;;;;;0.60;0.60;;;;;;;2.37;85.57;98878.16;29394;235;64009;-63
2021/12/18 00:37:23;;;;;;;0.60;0.60;;;;;;;2.35;85.67;98877.53;29395;198;63009;-63
2021/12/18 00:37:55;;;;;;;0.60;0.60;;;;;;;2.33;85.57;98868.84;29394;197;64009;-63
2021/12/18 00:38:30;;;;;;;0.60;0.60;;;;;;;2.34;85.71;98876.69;29395;202;63009;-62
2021/12/18 00:39:03;;;;;;;0.60;0.60;;;;;;;2.36;85.48;98879.19;29395;230;63004;-63
2021/12/18 00:39:43;;;;;;;0.60;0.60;;;;;;;2.34;85.22;98875.88;29395;241;63009;-62
2021/12/18 00:40:22;;;;;;;0.60;0.60;;;;;;;2.34;85.38;98875.88;29395;197;63009;-62
2021/12/18 00:41:12;;;;;;;0.60;0.60;;;;;;;2.33;85.30;98874.22;29395;234;63008;-62
2021/12/18 00:41:59;;;;;;;0.60;0.60;;;;;;;2.30;85.66;98877.28;29395;286;63011;-63
2021/12/18 00:42:46;;;;;;;0.70;0.70;;;;;;;2.30;85.40;98877.28;29394;225;64014;-63
2021/12/18 00:43:25;;;;;;;0.60;0.60;;;;;;;2.31;85.31;98877.09;29394;230;64009;-63
2021/12/18 00:44:03;;;;;;;0.70;0.70;;;;;;;2.31;85.57;98876.25;29395;197;63009;-63
2021/12/18 00:44:35;;;;;;;0.60;0.60;;;;;;;2.30;85.53;98875.41;29395;242;63005;-63
2021/12/18 00:45:14;;;;;;;0.60;0.60;;;;;;;2.27;85.79;98874.97;29395;237;63009;-63
2021/12/18 00:45:46;;;;;;;0.60;0.60;;;;;;;2.26;86.02;98878.66;29395;252;63004;-62
2021/12/18 00:46:20;;;;;;;0.60;0.60;;;;;;;2.26;85.85;98878.66;29395;229;63009;-64
2021/12/18 00:46:52;;;;;;;0.60;0.60;;;;;;;2.24;85.58;98876.19;29395;220;63004;-63
2021/12/18 00:47:23;;;;;;;0.60;0.60;;;;;;;2.26;85.94;98881.34;29395;197;63009;-63
2021/12/18 00:47:56;;;;;;;0.60;0.60;;;;;;;2.25;85.67;98879.69;29395;238;63004;-63
2021/12/18 00:48:29;;;;;;;0.60;0.60;;;;;;;2.24;85.71;98880.72;29394;224;64013;-63
2021/12/18 00:49:03;;;;;;;1.30;1.30;;;;;;;2.23;85.84;98879.87;29395;204;63009;-63
2021/12/18 00:49:35;;;;;;;0.60;0.60;;;;;;;2.23;85.74;98884.41;29395;214;63009;-63
2021/12/18 00:50:14;;;;;;;0.60;0.60;;;;;;;2.23;85.72;98884.41;29395;283;63005;-63
2021/12/18 00:50:47;;;;;;;0.60;0.60;;;;;;;2.22;85.72;98886.25;29395;200;63009;-63
2021/12/18 00:51:19;;;;;;;0.70;0.70;;;;;;;2.23;86.05;98884.41;29395;257;63005;-61
2021/12/18 00:51:51;;;;;;;0.60;0.60;;;;;;;2.25;85.82;98882.38;29395;202;63009;-63
2021/12/18 00:52:24;;;;;;;0.60;0.60;;;;;;;2.25;85.84;98877.84;29394;227;64009;-63
2021/12/18 00:52:56;;;;;;;0.60;0.60;;;;;;;2.27;85.74;98883.00;29395;226;63009;-63
2021/12/18 00:53:28;;;;;;;0.60;0.60;;;;;;;2.27;86.00;98878.47;29395;206;63004;-63
2021/12/18 00:54:01;;;;;;;0.60;0.60;;;;;;;2.29;85.92;98883.66;29395;233;63009;-62
2021/12/18 00:54:34;;;;;;;0.60;0.60;;;;;;;2.28;85.20;98877.47;29395;209;63004;-62
2021/12/18 00:55:08;;;;;;;0.68;0.68;;;;;;;2.29;85.50;98878.28;29394;241;64013;-62
2021/12/18 00:55:40;;;;;;;0.60;0.60;;;;;;;2.29;85.21;98881.81;29394;215;64009;-62
2021/12/18 00:56:13;;;;;;;0.62;0.62;;;;;;;2.32;84.94;98877.91;29395;211;63008;-64
2021/12/18 00:56:45;;;;;;;0.60;0.60;;;;;;;2.31;84.68;98881.59;29395;214;63005;-62
2021/12/18 00:57:18;;;;;;;0.60;0.60;;;;;;;2.31;84.60;98886.97;29395;218;63009;-62
2021/12/18 00:57:51;;;;;;;0.60;0.60;;;;;;;2.23;84.76;98890.59;29395;227;63005;-65
2021/12/18 00:58:22;;;;;;;0.60;0.60;;;;;;;2.17;85.03;98882.50;29395;237;63009;-62
2021/12/18 00:58:53;;;;;;;0.62;0.62;;;;;;;2.15;85.29;98885.34;29395;204;63005;-62
2021/12/18 00:59:27;;;;;;;0.60;0.60;;;;;;;2.17;85.38;98886.00;29395;284;63009;-63
2021/12/18 01:00:03;;;;;;;0.70;0.70;;;;;;;2.17;85.12;98882.50;29394;223;64009;-62
2021/12/18 01:00:41;;;;;;;0.60;0.60;;;;;;;2.16;85.41;98888.87;29395;244;63009;-62
2021/12/18 01:01:15;;;;;;;0.60;0.60;;;;;;;2.15;85.55;98885.34;29395;298;63004;-61
2021/12/18 01:01:51;;;;;;;0.60;0.60;;;;;;;2.15;85.32;98888.03;29394;228;64013;-63
2021/12/18 01:02:23;;;;;;;0.60;0.60;;;;;;;2.15;85.62;98887.19;29395;219;63003;-63
2021/12/18 01:03:00;;;;;;;0.60;0.60;;;;;;;2.14;85.73;98885.53;29395;202;63009;-63
2021/12/18 01:03:34;;;;;;;0.75;0.75;;;;;;;2.18;85.43;98886.81;29395;281;63004;-64
2021/12/18 01:04:06;;;;;;;0.60;0.60;;;;;;;2.22;84.81;98882.75;29395;224;63009;-58
2021/12/18 01:04:38;;;;;;;0.60;0.60;;;;;;;2.19;84.75;98880.44;29373;227;63005;-63
2021/12/18 01:05:10;;;;;;;0.60;0.60;;;;;;;2.14;85.16;98882.88;29394;197;64014;-64
2021/12/18 01:05:44;;;;;;;0.60;0.60;;;;;;;2.10;85.25;98874.38;29395;234;63005;-62
2021/12/18 01:06:21;;;;;;;0.60;0.60;;;;;;;2.14;85.38;98880.19;29373;257;63009;-62
2021/12/18 01:06:52;;;;;;;0.60;0.60;;;;;;;2.14;85.37;98880.19;29395;226;63005;-64
2021/12/18 01:07:33;;;;;;;0.68;0.68;;;;;;;2.10;84.76;98878.91;29395;242;63009;-63
2021/12/18 01:08:05;;;;;;;0.70;0.70;;;;;;;2.04;85.18;98879.69;29417;211;63005;-63
2021/12/18 01:08:38;;;;;;;0.60;0.60;;;;;;;2.00;85.15;98874.72;29395;214;63009;-63
2021/12/18 01:09:09;;;;;;;0.60;0.60;;;;;;;1.99;85.30;98867.69;29395;224;63004;-63
2021/12/18 01:09:57;;;;;;;0.60;0.60;;;;;;;1.97;85.46;98872.41;29395;259;63009;-63
2021/12/18 01:10:49;;;;;;;0.60;0.60;;;;;;;1.99;85.71;98873.06;29394;222;64009;-64
2021/12/18 01:11:36;;;;;;;0.60;0.60;;;;;;;1.96;85.49;98868.06;29394;243;64013;-63
2021/12/18 01:12:09;;;;;;;0.60;0.60;;;;;;;1.94;85.91;98864.75;29395;223;63005;-64
2021/12/18 01:12:44;;;;;;;0.60;0.60;;;;;;;1.94;85.81;98870.12;29395;240;63009;-64
2021/12/18 01:13:22;;;;;;;0.60;0.60;;;;;;;1.95;85.96;98866.41;29395;232;63005;-63
2021/12/18 01:14:12;;;;;;;1.05;1.05;;;;;;;1.94;86.09;98870.12;29395;235;63009;-63
2021/12/18 01:15:11;;;;;;;0.60;0.60;;;;;;;1.93;86.16;98867.63;29395;215;63005;-63
2021/12/18 01:15:52;;;;;;;0.60;0.60;;;;;;;1.93;86.03;98870.31;29394;231;64013;-63
2021/12/18 01:16:26;;;;;;;0.60;0.60;;;;;;;1.92;86.07;98872.16;29373;290;63004;-62
2021/12/18 01:23:10;;;;;;;0.60;0.60;;;;;;;1.90;86.05;98874.19;29373;267;63004;-62
2021/12/18 01:23:41;;;;;;;0.60;0.60;;;;;;;1.91;86.12;98875.00;29373;202;63009;-63
2021/12/18 01:24:14;;;;;;;0.70;0.70;;;;;;;1.89;86.17;98877.88;29395;304;63004;-64
2021/12/18 01:24:46;;;;;;;0.60;0.60;;;;;;;1.88;85.85;98870.03;29373;252;63009;-63
2021/12/18 01:25:20;;;;;;;0.60;0.60;;;;;;;1.87;86.21;98874.56;29373;280;63004;-64
2021/12/18 01:25:56;;;;;;;0.60;0.60;;;;;;;1.89;85.96;98869.84;29373;202;63008;-62
2021/12/18 01:26:29;;;;;;;0.60;0.60;;;;;;;1.90;85.82;98868.00;29394;230;64009;-62
2021/12/18 01:27:00;;;;;;;0.60;0.60;;;;;;;1.90;85.73;98873.34;29373;198;63009;-62
2021/12/18 01:27:33;;;;;;;0.60;0.60;;;;;;;1.89;85.80;98871.69;29373;197;63005;-63
2021/12/18 01:28:05;;;;;;;0.60;0.60;;;;;;;1.86;85.66;98867.53;29373;225;63009;-62
2021/12/18 01:28:37;;;;;;;0.60;0.60;;;;;;;1.88;85.85;98868.19;29395;287;63005;-62
2021/12/18 01:29:09;;;;;;;0.60;0.60;;;;;;;1.90;85.53;98874.19;29395;230;63009;-63
2021/12/18 01:29:40;;;;;;;0.60;0.60;;;;;;;1.88;85.29;98876.22;29395;383;63005;-62
2021/12/18 01:30:14;;;;;;;0.70;0.70;;;;;;;1.87;85.19;98866.53;29373;206;63019;-61
2021/12/18 01:30:46;;;;;;;0.60;0.60;;;;;;;1.85;85.17;98865.87;29395;308;63004;-63
2021/12/18 01:31:18;;;;;;;0.70;0.70;;;;;;;1.81;85.47;98875.31;29394;202;64013;-62
2021/12/18 01:31:51;;;;;;;0.60;0.60;;;;;;;1.78;85.71;98870.31;29373;219;63004;-62
2021/12/18 01:32:25;;;;;;;0.60;0.60;;;;;;;1.77;85.81;98868.66;29395;217;63013;-63
2021/12/18 01:32:57;;;;;;;0.60;0.60;;;;;;;1.76;86.06;98869.69;29395;270;63004;-64
2021/12/18 01:33:31;;;;;;;0.60;0.60;;;;;;;1.75;85.71;98870.69;29394;262;64014;-63
2021/12/18 01:34:05;;;;;;;0.60;0.60;;;;;;;1.74;86.14;98873.56;29373;289;63005;-65
2021/12/18 01:34:40;;;;;;;0.60;0.60;;;;;;;1.73;85.84;98872.78;29373;235;63009;-63
2021/12/18 01:35:12;;;;;;;0.50;0.50;;;;;;;1.72;86.11;98881.81;29395;207;63005;-63
2021/12/18 01:35:44;;;;;;;0.55;0.55;;;;;;;1.71;85.95;98872.13;29373;216;63009;-64
2021/12/18 01:36:17;;;;;;;0.60;0.60;;;;;;;1.71;85.89;98882.81;29395;266;63005;-63
2021/12/18 01:36:52;;;;;;;0.60;0.60;;;;;;;1.70;86.21;98883.84;29395;250;63009;-63
2021/12/18 01:37:26;;;;;;;0.85;0.85;;;;;;;1.68;86.06;98881.34;29371;225;64009;-63
2021/12/18 01:37:59;;;;;;;0.60;0.60;;;;;;;1.70;86.24;98883.00;29373;235;63009;-63
2021/12/18 01:38:32;;;;;;;0.60;0.60;;;;;;;1.70;86.31;98889.19;29395;203;63004;-64
2021/12/18 01:39:05;;;;;;;0.60;0.60;;;;;;;1.72;86.15;98887.16;29395;305;63009;-63
2021/12/18 01:39:37;;;;;;;0.60;0.60;;;;;;;1.72;86.24;98871.09;29395;213;63004;-64
2021/12/18 01:40:11;;;;;;;0.60;0.60;;;;;;;1.72;85.99;98881.81;29395;209;63008;-64
2021/12/18 01:40:43;;;;;;;0.60;0.60;;;;;;;1.71;86.27;98872.13;29395;260;63004;-65
2021/12/18 01:41:16;;;;;;;0.60;0.60;;;;;;;1.67;86.02;98878.88;29395;212;63009;-57
2021/12/18 01:44:36;;;;;;;0.70;0.70;;;;;;;1.65;86.25;98879.06;29394;239;64009;-63
2021/12/18 01:46:12;;;;;;;0.75;0.75;;;;;;;1.71;85.31;98882.00;29395;199;63004;-64
2021/12/18 01:51:11;;;;;;;0.60;0.60;;;;;;;1.69;85.74;98882.19;29373;202;63009;-63
2021/12/18 01:52:17;;;;;;;0.60;0.60;;;;;;;1.65;86.55;98886.25;29395;225;63009;-64
2021/12/18 01:52:53;;;;;;;0.70;0.70;;;;;;;1.68;86.68;98885.88;29373;216;63004;-63
2021/12/18 01:53:25;;;;;;;0.60;0.60;;;;;;;1.70;86.60;98891.03;29395;278;63019;-63
2021/12/18 01:53:57;;;;;;;0.70;0.70;;;;;;;1.69;86.58;98882.19;29394;197;64009;-62
2021/12/18 01:54:29;;;;;;;0.60;0.60;;;;;;;1.70;86.63;98885.69;29395;220;63009;-63
2021/12/18 01:55:05;;;;;;;0.70;0.70;;;;;;;1.71;86.60;98880.16;29395;205;63004;-62
2021/12/18 01:55:44;;;;;;;0.60;0.60;;;;;;;1.74;86.82;98874.41;29395;250;63008;-62
2021/12/18 01:56:22;;;;;;;0.60;0.60;;;;;;;1.75;86.49;98878.72;29395;249;63005;-62
2021/12/18 01:56:57;;;;;;;0.60;0.60;;;;;;;1.77;86.48;98879.38;29395;292;63009;-64
2021/12/18 01:57:31;;;;;;;0.60;0.60;;;;;;;1.77;86.29;98879.38;29395;212;63005;-64
2021/12/18 01:58:05;;;;;;;0.60;0.60;;;;;;;1.77;86.28;98890.06;29395;227;63009;-63
2021/12/18 01:58:43;;;;;;;0.60;0.60;;;;;;;1.77;86.28;98882.06;29395;218;63005;-63
2021/12/18 01:59:16;;;;;;;0.60;0.60;;;;;;;1.73;86.33;98886.16;29394;221;64013;-64
2021/12/18 01:59:48;;;;;;;0.60;0.60;;;;;;;1.69;86.50;98887.53;29395;206;63005;-63
2021/12/18 02:00:30;;;;;;;0.70;0.70;;;;;;;1.68;86.43;98885.88;29395;209;63009;-65
2021/12/18 02:01:06;;;;;;;0.70;0.70;;;;;;;1.70;86.55;98891.03;29395;388;63004;-64
2021/12/18 02:01:39;;;;;;;0.70;0.70;;;;;;;1.68;86.25;98896.59;29373;199;63009;-65
2021/12/18 02:02:12;;;;;;;0.60;0.60;;;;;;;1.68;85.98;98891.22;29395;276;63004;-63
2021/12/18 02:02:44;;;;;;;0.65;0.65;;;;;;;1.68;85.95;98893.91;29395;286;63009;-63
2021/12/18 02:03:19;;;;;;;0.60;0.60;;;;;;;1.68;86.32;98886.72;29395;275;63004;-63
2021/12/18 02:03:52;;;;;;;0.60;0.60;;;;;;;1.69;86.24;98895.56;29395;246;63009;-57
2021/12/18 02:04:31;;;;;;;0.60;0.60;;;;;;;1.69;86.22;98892.88;29394;231;64009;-64
2021/12/18 02:05:05;;;;;;;0.60;0.60;;;;;;;1.68;86.32;98891.22;29395;227;63009;-64
2021/12/18 02:05:44;;;;;;;0.60;0.60;;;;;;;1.65;86.33;98891.59;29395;281;63005;-64
2021/12/18 02:06:21;;;;;;;0.60;0.60;;;;;;;1.63;86.20;98898.97;29373;239;63022;-62
2021/12/18 02:06:54;;;;;;;0.60;0.60;;;;;;;1.65;86.38;98886.25;29373;329;63005;-63
2021/12/18 02:07:27;;;;;;;0.70;0.70;;;;;;;1.69;86.60;98903.59;29373;256;63009;-63
2021/12/18 02:08:00;;;;;;;0.60;0.60;;;;;;;1.71;86.47;98890.84;29395;245;63004;-63
2021/12/18 02:08:35;;;;;;;0.60;0.60;;;;;;;1.71;86.35;98888.19;29373;237;63009;-62
2021/12/18 02:09:09;;;;;;;0.60;0.60;;;;;;;1.72;86.16;98889.00;29395;233;63004;-63
2021/12/18 02:10:02;;;;;;;0.60;0.60;;;;;;;1.70;86.32;98881.16;29394;235;64013;-62
2021/12/18 02:10:46;;;;;;;0.60;0.60;;;;;;;1.69;86.20;98882.19;29377;268;125004;-63
2021/12/18 02:11:28;;;;;;;0.60;0.60;;;;;;;1.68;86.66;98885.88;29395;291;63009;-65
2021/12/18 02:12:01;;;;;;;0.70;0.70;;;;;;;1.67;86.45;98890.41;29373;279;63005;-63
2021/12/18 02:20:22;;;;;;;2.53;2.45;;;;;;;1.57;86.23;98878.31;29373;292;63009;-62
2021/12/18 02:20:56;;;;;;;0.60;0.60;;;;;;;1.53;86.76;98885.06;29372;204;64009;-62
2021/12/18 02:21:30;;;;;;;0.70;0.70;;;;;;;1.52;86.46;98880.72;29373;323;63009;-66
2021/12/18 02:22:03;;;;;;;0.60;0.60;;;;;;;1.53;86.90;98883.22;29373;217;63005;-62
2021/12/18 02:22:36;;;;;;;0.70;0.70;;;;;;;1.55;86.59;98885.69;29373;208;63009;-64
2021/12/18 02:23:09;;;;;;;0.60;0.60;;;;;;;1.56;86.83;98882.00;29373;337;63004;-64
2021/12/18 02:23:41;;;;;;;0.70;0.70;;;;;;;1.57;86.69;98878.31;29373;197;63009;-63
2021/12/18 02:24:17;;;;;;;0.60;0.60;;;;;;;1.58;86.90;98874.63;29373;208;63004;-64
2021/12/18 02:24:48;;;;;;;0.60;0.60;;;;;;;1.56;86.42;98882.00;29373;342;63011;-62
2021/12/18 02:25:22;;;;;;;0.60;0.60;;;;;;;1.56;86.44;98882.84;29371;209;64008;-62
2021/12/18 02:25:54;;;;;;;0.60;0.60;;;;;;;1.56;86.51;98879.34;29373;276;63008;-63
2021/12/18 02:26:28;;;;;;;0.60;0.60;;;;;;;1.54;86.59;98878.69;29373;203;63005;-64
2021/12/18 02:27:02;;;;;;;0.60;0.60;;;;;;;1.53;86.63;98880.53;29373;197;63009;-63
2021/12/18 02:27:34;;;;;;;0.62;0.62;;;;;;;1.53;86.52;98879.72;29395;203;63005;-57
2021/12/18 02:28:14;;;;;;;0.60;0.60;;;;;;;1.52;86.42;98880.72;29373;206;63017;-63
2021/12/18 02:28:48;;;;;;;0.70;0.70;;;;;;;1.50;86.36;98882.75;29373;306;63005;-63
2021/12/18 02:29:19;;;;;;;0.60;0.60;;;;;;;1.49;86.70;98875.75;29373;227;63009;-63
2021/12/18 02:29:52;;;;;;;6.18;5.78;;;;;;;1.48;86.58;98879.44;29373;202;63004;-64
2021/12/18 02:30:24;;;;;;;1.35;1.35;;;;;;;1.48;86.88;98876.75;29372;307;64013;-63
2021/12/18 02:30:59;;;;;;;0.68;0.68;;;;;;;1.46;86.63;98876.94;29373;252;63004;-63
2021/12/18 02:31:45;;;;;;;0.75;0.75;;;;;;;1.42;86.75;98880.16;29373;311;63009;-64
2021/12/18 02:32:21;;;;;;;0.80;0.80;;;;;;;1.39;86.84;98881.37;29395;264;63004;-63
2021/12/18 02:32:57;;;;;;;1.25;1.25;;;;;;;1.40;86.89;98877.69;29373;249;63008;-64
2021/12/18 02:33:33;;;;;;;0.60;0.60;;;;;;;1.42;86.90;98880.16;29373;223;63005;-65
2021/12/18 02:34:16;;;;;;;0.60;0.60;;;;;;;1.44;86.90;98880.81;29373;213;63009;-62
2021/12/18 02:34:55;;;;;;;0.60;0.60;;;;;;;1.46;86.84;98879.63;29373;205;63005;-63
2021/12/18 02:35:35;;;;;;;0.60;0.60;;;;;;;1.48;86.77;98872.22;29371;205;64013;-62
2021/12/18 02:36:09;;;;;;;0.60;0.60;;;;;;;1.48;86.64;98879.44;29373;281;63005;-63
2021/12/18 02:36:47;;;;;;;1.55;1.55;;;;;;;1.47;86.46;98880.44;29373;216;63009;-63
2021/12/18 02:37:27;;;;;;;0.60;0.60;;;;;;;1.47;86.88;98872.41;29373;247;63004;-62
2021/12/18 02:38:45;;;;;;;0.60;0.60;;;;;;;1.48;86.79;98864.22;29373;234;63009;-62
2021/12/18 02:39:37;;;;;;;0.60;0.60;;;;;;;1.48;86.70;98874.09;29373;207;63004;-62
2021/12/18 02:41:09;;;;;;;0.60;0.60;;;;;;;1.47;86.65;98869.75;29417;375;63005;-62
2021/12/18 02:41:45;;;;;;;0.60;0.60;;;;;;;1.49;86.66;98867.72;29395;206;63009;-62
2021/12/18 02:42:22;;;;;;;0.60;0.60;;;;;;;1.52;86.52;98870.03;29373;203;63005;-61
2021/12/18 02:42:54;;;;;;;0.60;0.60;;;;;;;1.54;86.51;98870.66;29373;227;63009;-61
2021/12/18 02:43:28;;;;;;;0.60;0.60;;;;;;;1.54;86.78;98879.53;29373;222;63005;-62
2021/12/18 02:44:08;;;;;;;0.60;0.60;;;;;;;1.55;86.70;98869.66;29373;325;63009;-60
2021/12/18 02:44:40;;;;;;;0.60;0.60;;;;;;;1.57;86.79;98867.63;29373;274;63005;-63
2021/12/18 02:45:13;;;;;;;0.60;0.60;;;;;;;1.59;86.92;98871.78;29371;256;64013;-62
2021/12/18 02:45:47;;;;;;;0.60;0.60;;;;;;;1.61;86.40;98874.25;29373;310;63004;-62
2021/12/18 02:46:20;;;;;;;0.60;0.60;;;;;;;1.63;86.37;98872.22;29373;198;63009;-63
2021/12/18 02:46:56;;;;;;;0.62;0.62;;;;;;;1.63;86.21;98867.69;29373;198;63004;-64
2021/12/18 02:47:27;;;;;;;0.60;0.60;;;;;;;1.61;86.01;98871.59;29373;246;63011;-57
2021/12/18 02:48:00;;;;;;;0.60;0.60;;;;;;;1.58;85.88;98875.47;29373;310;63009;-62
2021/12/18 02:48:32;;;;;;;0.60;0.60;;;;;;;1.58;86.10;98877.31;29373;200;63009;-63
2021/12/18 02:49:09;;;;;;;0.60;0.60;;;;;;;1.53;85.87;98869.00;29371;331;64009;-62
2021/12/18 02:49:52;;;;;;;0.60;0.60;;;;;;;1.51;86.16;98873.72;29373;366;63009;-58
2021/12/18 02:50:26;;;;;;;0.60;0.60;;;;;;;1.46;86.22;98874.25;29371;374;64009;-57
2021/12/18 02:50:59;;;;;;;0.60;0.60;;;;;;;1.46;86.55;98878.78;29373;372;63009;-59
2021/12/18 02:51:33;;;;;;;0.60;0.60;;;;;;;1.46;86.32;98876.09;29373;226;63005;-58
2021/12/18 02:52:08;;;;;;;0.60;0.60;;;;;;;1.47;86.40;98875.94;29373;202;63009;-64
2021/12/18 02:52:40;;;;;;;0.60;0.60;;;;;;;1.45;86.26;98880.63;29373;309;63004;-63
2021/12/18 02:53:15;;;;;;;0.60;0.60;;;;;;;1.43;86.60;98879.16;29373;246;63009;-59
2021/12/18 02:53:49;;;;;;;0.60;0.60;;;;;;;1.44;86.54;98875.47;29373;311;63004;-61
2021/12/18 02:54:22;;;;;;;0.60;0.60;;;;;;;1.43;86.44;98873.81;29373;356;63009;-57
2021/12/18 02:54:58;;;;;;;0.98;0.98;;;;;;;1.38;86.71;98874.38;29373;211;63004;-58
2021/12/18 02:55:31;;;;;;;0.60;0.60;;;;;;;1.39;86.69;98873.34;29371;292;64013;-63
2021/12/18 02:56:09;;;;;;;0.60;0.60;;;;;;;1.40;86.92;98882.19;29373;197;63005;-57
2021/12/18 02:56:41;;;;;;;0.60;0.60;;;;;;;1.42;86.78;98874.81;29395;220;63009;-60
2021/12/18 02:57:16;;;;;;;0.75;0.75;;;;;;;1.45;87.00;98874.44;29373;301;63005;-61
2021/12/18 02:57:49;;;;;;;0.60;0.60;;;;;;;1.49;86.78;98875.75;29373;227;63009;-63
2021/12/18 02:58:22;;;;;;;0.60;0.60;;;;;;;1.54;86.42;98874.16;29373;196;63005;-57
2021/12/18 02:59:04;;;;;;;0.60;0.60;;;;;;;1.54;85.64;98868.00;29373;308;63009;-57
2021/12/18 02:59:54;;;;;;;0.60;0.60;;;;;;;1.49;85.66;98865.03;29371;296;64009;-63
2021/12/18 03:00:28;;;;;;;0.60;0.60;;;;;;;1.49;85.74;98870.38;29373;282;63009;-62
2021/12/18 03:01:00;;;;;;;0.60;0.60;;;;;;;1.49;86.13;98875.75;29373;289;63009;-57
2021/12/18 03:01:36;;;;;;;0.60;0.60;;;;;;;1.50;85.84;98862.19;29373;236;63009;-63
2021/12/18 03:02:08;;;;;;;0.60;0.60;;;;;;;1.49;85.71;98867.72;29395;220;63004;-58
2021/12/18 03:02:45;;;;;;;0.60;0.60;;;;;;;1.49;85.76;98870.38;29373;350;63008;-64
2021/12/18 03:03:28;;;;;;;0.60;0.60;;;;;;;1.46;85.84;98873.44;29373;244;63005;-62
2021/12/18 03:04:13;;;;;;;0.60;0.60;;;;;;;1.45;85.75;98871.78;29373;230;63009;-57
2021/12/18 03:04:50;;;;;;;0.60;0.60;;;;;;;1.42;85.89;98869.47;29371;277;64009;-63
2021/12/18 03:05:32;;;;;;;0.60;0.60;;;;;;;1.39;86.23;98864.53;29373;262;63018;-58
2021/12/18 03:06:29;;;;;;;0.60;0.60;;;;;;;1.36;86.59;98860.38;29373;204;63005;-57
2021/12/18 03:07:05;;;;;;;0.60;0.60;;;;;;;1.33;86.97;98866.91;29373;222;63009;-63
2021/12/18 03:07:37;;;;;;;0.70;0.70;;;;;;;1.32;87.14;98859.91;29373;296;63004;-57
2021/12/18 03:08:16;;;;;;;0.98;0.98;;;;;;;1.32;86.96;98865.25;29373;259;63009;-57
2021/12/18 03:09:00;;;;;;;3.62;3.53;;;;;;;1.32;87.35;98854.56;29373;244;63004;-59
2021/12/18 03:20:02;;;;;;;;;;;;;;;1.36;87.42;98870.25;29973;982;29005;-58
2021/12/18 03:24:28;;;;;;;0.70;0.70;;;;;;;1.28;87.06;98874.66;29395;321;63004;-62
2021/12/18 03:25:20;;;;;;;0.93;0.93;;;;;;;1.26;87.81;98870.50;29439;224;63008;-57
2021/12/18 03:25:56;;;;;;;;;;;;;;;1.26;87.87;98875.88;29974;987;28000;-58
2021/12/18 03:26:31;;;;;;;0.70;0.70;;;;;;;1.25;87.85;98875.03;29399;336;64009;-57
2021/12/18 03:27:05;;;;;;;0.70;0.70;;;;;;;1.25;87.75;98877.72;29373;214;63009;-58